Thunderstorms From: 21-05-2018 15:00 Until: 22-05-2018 15:00 warning for: Thunderstorms Level: Yellow info button

Although rather usual in this region, locally or potentially dangerous phenomena are expected. (such as local winds, summer thunderstorms, rising streams or high waves) Be aware and pay attention to the latest weather updates, especially if you carry out activities exposed to weather or close to a stream or shoreline. 


Meteo18 Weather Cam more information Meteo18 Weather Cam


warning for Thunderstorms more information blitzortung!


Rain radar more information rain snow radar


Visit our other weather sites:

Template documentation
and downloads

And another site



Weather Underground History page Text

Daily Summary for May 14, 2017 Units:  Metric    English   Both
« Previous Day
Next Day »
Daily Weekly Monthly Yearly Custom
  High: Low: Average:
Temperature: -17.8 °C -12.2 °C -9.3 °C
Dew Point: -17.8 °C -12.8 °C -11.4 °C
Humidity: Humidity % 55 % 79 %
Wind Speed: 0 km/h 0 km/h 6.6 km/h
Wind Gust: 0 km/h - -
Wind:- - WSW
Pressure: 0 hPa 34486.4 hPa -
Precipitation: 58.42 mm    
Historical Graphs
 
 
Tabular Data for May 14, 2017
Time Temperature Dew Point Pressure Wind Wind Speed Wind Gust Humidity Rainfall Rate (Hourly)
-17.8 °C -17.8 °C 0 hPa Calm     Humidity % 0 mm
00:02 -10.9 °C -11.9 °C 34486.4 hPa Calm   5.1 km/h 89 % 0 mm
00:12 -10.9 °C -11.8 °C 34486.4 hPa Calm   5.1 km/h 90 % 0 mm
00:17 -11 °C -11.9 °C 34496.6 hPa Calm   5.1 km/h 90 % 0 mm
00:22 -11 °C -11.9 °C 34496.6 hPa Calm   5.1 km/h 90 % 0 mm
00:32 -10.9 °C -11.7 °C 34496.6 hPa Calm   2.6 km/h 91 % 0 mm
00:42 -10.8 °C -11.6 °C 34496.6 hPa Calm   2.6 km/h 91 % 0 mm
00:52 -10.6 °C -11.4 °C 34510.1 hPa SW 2.6 km/h 2.6 km/h 91 % 0 mm
00:57 -10.5 °C -11.4 °C 34510.1 hPa Calm   7.7 km/h 90 % 0 mm
01:02 -10.8 °C -11.8 °C 34510.1 hPa Calm   7.7 km/h 88 % 0 mm
01:12 -11 °C -11.9 °C 34520.3 hPa Calm   7.7 km/h 90 % 0 mm
01:17 -10.9 °C -11.7 °C 34520.3 hPa Calm   2.6 km/h 92 % 0 mm
01:22 -10.8 °C -11.6 °C 34520.3 hPa Calm   2.6 km/h 92 % 0 mm
01:32 -10.7 °C -11.4 °C 34510.1 hPa Calm   2.6 km/h 92 % 0 mm
01:37 -10.6 °C -11.3 °C 34520.3 hPa Calm   2.6 km/h 92 % 0 mm
01:42 -10.6 °C -11.3 °C 34520.3 hPa Calm     91 % 0 mm
01:47 -10.7 °C -11.6 °C 34520.3 hPa Calm   2.6 km/h 90 % 0 mm
01:52 -10.9 °C -11.8 °C 34520.3 hPa Calm   7.7 km/h 90 % 0 mm
01:57 -11 °C -11.8 °C 34533.8 hPa South 2.6 km/h 7.7 km/h 91 % 0 mm
02:02 -11.1 °C -11.8 °C 34533.8 hPa Calm   5.1 km/h 92 % 0 mm
02:07 -11.1 °C -11.8 °C 34533.8 hPa South 2.6 km/h 5.1 km/h 92 % 0 mm
02:12 -11.1 °C -11.7 °C 34533.8 hPa SSW 2.6 km/h 5.1 km/h 93 % 0 mm
02:17 -11.1 °C -11.7 °C 34533.8 hPa Calm   5.1 km/h 93 % 0 mm
02:22 -11.2 °C -11.8 °C 34533.8 hPa SSW 2.6 km/h 5.1 km/h 93 % 0 mm
02:32 -11.1 °C -11.6 °C 34533.8 hPa SW 7.7 km/h 7.7 km/h 94 % 0 mm
02:37 -11 °C -11.5 °C 34544 hPa SSW 10.3 km/h 12.9 km/h 94 % 0 mm
02:42 -11 °C -11.5 °C 34544 hPa SSW 2.6 km/h 12.9 km/h 94 % 20.32 mm
02:47 -11 °C -11.5 °C 34544 hPa SSW 5.1 km/h 12.9 km/h 94 % 38.1 mm
02:52 -11 °C -11.5 °C 34544 hPa SSW 2.6 km/h 12.9 km/h 94 % 38.1 mm
02:57 -11.1 °C -11.6 °C 34544 hPa Calm   7.7 km/h 94 % 38.1 mm
03:07 -11.1 °C -11.5 °C 34544 hPa Calm   5.1 km/h 95 % 38.1 mm
03:12 -11 °C -11.4 °C 34544 hPa SW 2.6 km/h 5.1 km/h 95 % 38.1 mm
03:17 -11 °C -11.4 °C 34554.1 hPa Calm   5.1 km/h 95 % 38.1 mm
03:22 -11.1 °C -11.5 °C 34554.1 hPa SSW 2.6 km/h 5.1 km/h 95 % 38.1 mm
03:27 -11.1 °C -11.5 °C 34554.1 hPa Calm   5.1 km/h 95 % 38.1 mm
03:32 -11 °C -11.4 °C 34554.1 hPa Calm   10.3 km/h 95 % 38.1 mm
03:37 -11 °C -11.4 °C 34554.1 hPa Calm   10.3 km/h 95 % 38.1 mm
03:42 -10.9 °C -11.4 °C 34554.1 hPa Calm   5.1 km/h 95 % 12.7 mm
03:47 -10.9 °C -11.4 °C 34554.1 hPa Calm   2.6 km/h 95 % 0 mm
03:52 -10.9 °C -11.4 °C 34554.1 hPa Calm   5.1 km/h 95 % 0 mm
03:57 -11 °C -11.4 °C 34554.1 hPa Calm   5.1 km/h 95 % 0 mm
04:02 -11 °C -11.4 °C 34554.1 hPa SSW 2.6 km/h 5.1 km/h 95 % 0 mm
04:12 -11.1 °C -11.5 °C 34554.1 hPa Calm   7.7 km/h 95 % 0 mm
04:22 -11.1 °C -11.5 °C 34554.1 hPa Calm   7.7 km/h 95 % 7.62 mm
04:27 -11.1 °C -11.6 °C 34554.1 hPa Calm   2.6 km/h 95 % 7.62 mm
04:32 -11.2 °C -11.6 °C 34554.1 hPa Calm   2.6 km/h 95 % 7.62 mm
04:37 -11.2 °C -11.6 °C 34567.7 hPa Calm   2.6 km/h 95 % 7.62 mm
04:42 -11.2 °C -11.6 °C 34567.7 hPa Calm     95 % 7.62 mm
04:47 -11.2 °C -11.5 °C 34567.7 hPa Calm     96 % 7.62 mm
04:52 -11.2 °C -11.5 °C 34567.7 hPa Calm     96 % 7.62 mm
05:02 -11.2 °C -11.6 °C 34577.8 hPa Calm     96 % 7.62 mm
05:12 -11.2 °C -11.6 °C 34577.8 hPa Calm     96 % 7.62 mm
05:17 -11.3 °C -11.6 °C 34577.8 hPa Calm     96 % 0 mm
05:22 -11.3 °C -11.6 °C 34577.8 hPa Calm     96 % 0 mm
05:32 -11.3 °C -11.6 °C 34577.8 hPa Calm     96 % 0 mm
05:37 -11.3 °C -11.7 °C 34577.8 hPa Calm     96 % 0 mm
05:42 -11.3 °C -11.7 °C 34577.8 hPa Calm     96 % 0 mm
05:47 -11.4 °C -11.8 °C 34577.8 hPa Calm     96 % 0 mm
05:52 -11.5 °C -11.8 °C 34591.4 hPa Calm     96 % 0 mm
05:57 -11.6 °C -11.9 °C 34591.4 hPa Calm     96 % 0 mm
06:02 -11.6 °C -11.9 °C 34591.4 hPa Calm     96 % 0 mm
06:12 -11.8 °C -12.1 °C 34591.4 hPa Calm     96 % 0 mm
06:17 -11.8 °C -12.1 °C 34591.4 hPa Calm     96 % 0 mm
06:22 -11.8 °C -12.2 °C 34591.4 hPa Calm     96 % 0 mm
06:27 -11.8 °C -12.2 °C 34591.4 hPa Calm     96 % 0 mm
06:32 -12 °C -12.4 °C 34591.4 hPa Calm   2.6 km/h 95 % 0 mm
06:37 -12.1 °C -12.4 °C 34591.4 hPa Calm   2.6 km/h 96 % 0 mm
06:42 -12.2 °C -12.5 °C 34591.4 hPa Calm     96 % 0 mm
06:47 -12.1 °C -12.4 °C 34601.5 hPa Calm     96 % 0 mm
06:57 -11.6 °C -11.8 °C 34601.5 hPa Calm     97 % 0 mm
07:02 -11.7 °C -12.2 °C 34601.5 hPa Calm     95 % 0 mm
07:07 -11.8 °C -12.2 °C 34601.5 hPa Calm     95 % 0 mm
07:12 -11.8 °C -12.2 °C 34611.7 hPa Calm     95 % 0 mm
07:17 -11.8 °C -12.3 °C 34611.7 hPa Calm     95 % 0 mm
07:27 -11.6 °C -11.9 °C 34611.7 hPa Calm     96 % 0 mm
07:32 -11.7 °C -12.2 °C 34611.7 hPa Calm     94 % 0 mm
07:37 -11.7 °C -12.2 °C 34611.7 hPa SSW 5.1 km/h   95 % 0 mm
07:42 -11.7 °C -12.1 °C 34611.7 hPa Calm   5.1 km/h 95 % 0 mm
07:47 -11.6 °C -12 °C 34625.2 hPa SSW 5.1 km/h 5.1 km/h 95 % 0 mm
07:52 -11.5 °C -11.9 °C 34625.2 hPa Calm   5.1 km/h 95 % 0 mm
07:57 -11.3 °C -11.6 °C 34625.2 hPa Calm   5.1 km/h 96 % 0 mm
08:02 -11.2 °C -11.5 °C 34625.2 hPa Calm   5.1 km/h 96 % 0 mm
08:12 -10.9 °C -11.3 °C 34625.2 hPa SSW 5.1 km/h 7.7 km/h 95 % 0 mm
08:17 -10.7 °C -11.2 °C 34625.2 hPa SW 2.6 km/h 10.3 km/h 95 % 0 mm
08:22 -10.7 °C -11.1 °C 34625.2 hPa SW 12.9 km/h 12.9 km/h 95 % 0 mm
08:32 -10.7 °C -11.3 °C 34635.4 hPa SW 10.3 km/h 15.6 km/h 93 % 0 mm
08:37 -10.7 °C -11.3 °C 34635.4 hPa SW 5.1 km/h 18.2 km/h 93 % 0 mm
08:42 -10.7 °C -11.3 °C 34635.4 hPa SW 7.7 km/h 18.2 km/h 93 % 0 mm
08:47 -10.7 °C -11.4 °C 34645.6 hPa WSW 10.3 km/h 18.2 km/h 92 % 0 mm
08:57 -10.4 °C -11.2 °C 34645.6 hPa SW 10.3 km/h 15.6 km/h 92 % 0 mm
09:02 -10.4 °C -11.2 °C 34645.6 hPa SW 7.7 km/h 18.2 km/h 91 % 0 mm
09:12 -10.2 °C -11.2 °C 34645.6 hPa SW 7.7 km/h 18.2 km/h 89 % 0 mm
09:17 -10.2 °C -11.4 °C 34659.1 hPa SW 10.3 km/h 15.6 km/h 87 % 0 mm
09:27 -10.2 °C -11.3 °C 34659.1 hPa WSW 5.1 km/h 15.6 km/h 88 % 0 mm
09:32 -10.1 °C -11.2 °C 34669.3 hPa Calm   15.6 km/h 88 % 0 mm
09:42 -10 °C -11.3 °C 34669.3 hPa WSW 5.1 km/h 12.9 km/h 86 % 0 mm
09:47 -10 °C -11.4 °C 34669.3 hPa SW 5.1 km/h 12.9 km/h 85 % 0 mm
09:52 -9.8 °C -11.1 °C 34669.3 hPa South 7.7 km/h 12.9 km/h 86 % 0 mm
09:57 -9.7 °C -11.1 °C 34669.3 hPa SSW 7.7 km/h 12.9 km/h 85 % 0 mm
10:02 -9.7 °C -11.2 °C 34669.3 hPa SW 5.1 km/h 12.9 km/h 84 % 0 mm
10:12 -9.5 °C -11 °C 34669.3 hPa SW 7.7 km/h 15.6 km/h 84 % 0 mm
10:17 -9.5 °C -11.1 °C 34669.3 hPa South 10.3 km/h 18.2 km/h 83 % 0 mm
10:22 -9.5 °C -11.1 °C 34682.8 hPa SW 12.9 km/h 20.8 km/h 83 % 0 mm
10:32 -9.3 °C -11.1 °C 34682.8 hPa WSW 10.3 km/h 20.8 km/h 81 % 0 mm
10:37 -9.3 °C -11.3 °C 34682.8 hPa SW 5.1 km/h 23.3 km/h 79 % 0 mm
10:42 -9.2 °C -10.9 °C 34682.8 hPa SW 10.3 km/h 25.9 km/h 82 % 0 mm
10:47 -9.1 °C -11.1 °C 34682.8 hPa WSW 7.7 km/h 25.9 km/h 79 % 0 mm
10:57 -8.8 °C -11.3 °C 34682.8 hPa SSW 7.7 km/h 18.2 km/h 75 % 0 mm
11:07 -8.8 °C -11.1 °C 34682.8 hPa SSW 7.7 km/h 20.8 km/h 76 % 0 mm
11:12 -8.7 °C -11.1 °C 34682.8 hPa WSW 7.7 km/h 20.8 km/h 75 % 0 mm
11:17 -8.5 °C -11.3 °C 34682.8 hPa WSW 10.3 km/h 25.9 km/h 72 % 0 mm
11:22 -8.6 °C -11.6 °C 34682.8 hPa WSW 12.9 km/h 25.9 km/h 71 % 0 mm
11:27 -8.6 °C -11.4 °C 34682.8 hPa SW 10.3 km/h 23.3 km/h 72 % 0 mm
11:32 -8.4 °C -11.2 °C 34682.8 hPa South 10.3 km/h 23.3 km/h 73 % 0 mm
11:42 -8.2 °C -10.8 °C 34682.8 hPa SSW 5.1 km/h 20.8 km/h 74 % 0 mm
11:47 -8.2 °C -11.7 °C 34682.8 hPa SW 15.6 km/h 20.8 km/h 66 % 0 mm
11:52 -8.2 °C -11.3 °C 34682.8 hPa SSE 10.3 km/h 25.9 km/h 69 % 0 mm
11:57 -8.1 °C -11.4 °C 34682.8 hPa South 12.9 km/h 25.9 km/h 68 % 0 mm
12:02 -8.1 °C -11.8 °C 34682.8 hPa SW 23.3 km/h 25.9 km/h 65 % 0 mm
12:12 -7.9 °C -11.8 °C 34682.8 hPa SW 15.6 km/h 31.1 km/h 64 % 0 mm
12:17 -7.9 °C -11.7 °C 34682.8 hPa SW 15.6 km/h 31.1 km/h 64 % 0 mm
12:22 -7.8 °C -11.9 °C 34682.8 hPa SW 18.2 km/h 31.1 km/h 62 % 0 mm
12:32 -7.7 °C -12.4 °C 34682.8 hPa SW 10.3 km/h 31.1 km/h 58 % 0 mm
12:42 -7.7 °C -12.1 °C 34693 hPa WSW 23.3 km/h 44.1 km/h 60 % 0 mm
12:52 -7.6 °C -11.8 °C 34693 hPa WSW 20.8 km/h 38.8 km/h 61 % 0 mm
12:57 -7.6 °C -12.1 °C 34693 hPa SSW 10.3 km/h 38.8 km/h 59 % 0 mm
13:02 -7.3 °C -11.6 °C 34693 hPa SW 10.3 km/h 33.6 km/h 61 % 0 mm
13:07 -7.2 °C -11.3 °C 34693 hPa SSW 18.2 km/h 33.6 km/h 62 % 0 mm
13:12 -7.1 °C -11.2 °C 34693 hPa SW 18.2 km/h 36.2 km/h 62 % 0 mm
13:17 -7 °C -11.6 °C 34693 hPa SSW 18.2 km/h 36.2 km/h 59 % 0 mm
13:22 -7 °C -11.4 °C 34693 hPa SW 10.3 km/h 36.2 km/h 60 % 0 mm
13:27 -6.9 °C -11.5 °C 34693 hPa SW 10.3 km/h 33.6 km/h 59 % 0 mm
13:32 -6.9 °C -11.2 °C 34693 hPa SW 28.5 km/h 33.6 km/h 61 % 0 mm
13:37 -7.1 °C -11.6 °C 34693 hPa SW 12.9 km/h 33.6 km/h 59 % 0 mm
13:42 -7.2 °C -11.4 °C 34703.1 hPa SSW 15.6 km/h 33.6 km/h 61 % 0 mm
13:52 -7.2 °C -11.2 °C 34693 hPa SW 10.3 km/h 31.1 km/h 63 % 0 mm
13:57 -7.1 °C -11.3 °C 34693 hPa WSW 18.2 km/h 31.1 km/h 62 % 0 mm
14:02 -7.2 °C -11.9 °C 34703.1 hPa SW 15.6 km/h 33.6 km/h 58 % 0 mm
14:07 -7.1 °C -11.7 °C 34703.1 hPa WSW 23.3 km/h 33.6 km/h 59 % 0 mm
14:12 -7.1 °C -11.6 °C 34703.1 hPa SW 20.8 km/h 33.6 km/h 60 % 0 mm
14:17 -7.1 °C -11.7 °C 34703.1 hPa WSW 12.9 km/h 31.1 km/h 59 % 0 mm
14:22 -7 °C -11.4 °C 34703.1 hPa SW 7.7 km/h 31.1 km/h 60 % 0 mm
14:32 -6.9 °C -11.4 °C 34703.1 hPa SSW 10.3 km/h 28.5 km/h 60 % 0 mm
14:37 -6.7 °C -11 °C 34703.1 hPa WSW 7.7 km/h 28.5 km/h 61 % 0 mm
14:42 -6.6 °C -11.3 °C 34693 hPa WSW 10.3 km/h 28.5 km/h 58 % 0 mm
14:47 -6.6 °C -11.3 °C 34693 hPa SSW 15.6 km/h 31.1 km/h 58 % 0 mm
14:52 -6.5 °C -11.7 °C 34693 hPa SSW 31.1 km/h 31.1 km/h 55 % 0 mm
14:57 -6.6 °C -11.3 °C 34693 hPa West 10.3 km/h 31.1 km/h 58 % 0 mm
15:02 -6.7 °C -11.6 °C 34693 hPa SW 18.2 km/h 31.1 km/h 57 % 0 mm
15:07 -6.8 °C -11.3 °C 34693 hPa SW 23.3 km/h 31.1 km/h 59 % 0 mm
15:12 -6.8 °C -11.3 °C 34693 hPa WSW 15.6 km/h 33.6 km/h 60 % 0 mm
15:17 -6.9 °C -11.4 °C 34693 hPa West 10.3 km/h 36.2 km/h 59 % 0 mm
15:22 -7.1 °C -11.5 °C 34693 hPa WSW 10.3 km/h 36.2 km/h 60 % 0 mm
15:27 -7.3 °C -11.6 °C 34703.1 hPa West 28.5 km/h 36.2 km/h 61 % 0 mm
15:32 -8.2 °C -11 °C 34703.1 hPa West 7.7 km/h 49.2 km/h 72 % 0 mm
15:37 -8.4 °C -10.8 °C 34703.1 hPa WNW 18.2 km/h 49.2 km/h 76 % 12.7 mm
15:42 -8.3 °C -10.7 °C 34703.1 hPa West 5.1 km/h 49.2 km/h 76 % 12.7 mm
15:47 -8.1 °C -10.6 °C 34693 hPa SW 7.7 km/h 31.1 km/h 75 % 12.7 mm
15:52 -7.9 °C -10.6 °C 34693 hPa West 7.7 km/h 31.1 km/h 73 % 12.7 mm
16:02 -7.4 °C -11 °C 34693 hPa West 10.3 km/h 20.8 km/h 66 % 12.7 mm
16:07 -7.1 °C -10.3 °C 34693 hPa WSW 12.9 km/h 25.9 km/h 69 % 12.7 mm
16:12 -7.1 °C -10.8 °C 34693 hPa WSW 5.1 km/h 25.9 km/h 65 % 12.7 mm
16:17 -7.1 °C -10.7 °C 34693 hPa West 12.9 km/h 18.2 km/h 66 % 12.7 mm
16:22 -7.2 °C -10.9 °C 34693 hPa WNW 7.7 km/h 18.2 km/h 65 % 12.7 mm
16:27 -7.2 °C -10.9 °C 34682.8 hPa WNW 15.6 km/h 20.8 km/h 65 % 12.7 mm
16:32 -7.1 °C -10.5 °C 34693 hPa WNW 12.9 km/h 20.8 km/h 68 % 7.62 mm
16:37 -7.1 °C -10.3 °C 34693 hPa West 7.7 km/h 23.3 km/h 69 % 0 mm
16:42 -7.2 °C -10.4 °C 34693 hPa WSW 18.2 km/h 23.3 km/h 69 % 0 mm
16:47 -7.2 °C -10.4 °C 34693 hPa WNW 18.2 km/h 23.3 km/h 69 % 0 mm
16:52 -7.2 °C -10.5 °C 34693 hPa West 7.7 km/h 25.9 km/h 68 % 0 mm
16:57 -7.2 °C -10.8 °C 34703.1 hPa West 12.9 km/h 28.5 km/h 66 % 0 mm
17:02 -7.3 °C -10.8 °C 34703.1 hPa West 15.6 km/h 31.1 km/h 67 % 0 mm
17:12 -7.9 °C -10.9 °C 34703.1 hPa WNW 18.2 km/h 44.1 km/h 71 % 0 mm
17:17 -8 °C -11.2 °C 34703.1 hPa West 15.6 km/h 44.1 km/h 69 % 0 mm
17:22 -7.9 °C -10.8 °C 34703.1 hPa West 15.6 km/h 38.8 km/h 72 % 0 mm
17:27 -7.7 °C -10.4 °C 34703.1 hPa West 5.1 km/h 25.9 km/h 73 % 0 mm
17:32 -7.7 °C -10.6 °C 34703.1 hPa West 7.7 km/h 28.5 km/h 71 % 0 mm
17:42 -7.6 °C -10.6 °C 34703.1 hPa WSW 15.6 km/h 28.5 km/h 71 % 0 mm
17:52 -7.4 °C -10.6 °C 34703.1 hPa West 7.7 km/h 23.3 km/h 69 % 0 mm
17:57 -7.3 °C -10.4 °C 34703.1 hPa West 12.9 km/h 23.3 km/h 70 % 0 mm
18:02 -7.2 °C -10.4 °C 34703.1 hPa WSW 18.2 km/h 23.3 km/h 69 % 0 mm
18:12 -6.9 °C -10.7 °C 34703.1 hPa WSW 20.8 km/h 31.1 km/h 65 % 0 mm
18:17 -6.9 °C -10.9 °C 34703.1 hPa WSW 5.1 km/h 31.1 km/h 63 % 0 mm
18:22 -6.9 °C -11.8 °C 34703.1 hPa West 10.3 km/h 31.1 km/h 57 % 0 mm
18:27 -6.9 °C -11.4 °C 34703.1 hPa South 10.3 km/h 33.6 km/h 59 % 0 mm
18:32 -6.9 °C -11.4 °C 34703.1 hPa WSW 25.9 km/h 33.6 km/h 59 % 0 mm
18:37 -6.9 °C -11.5 °C 34703.1 hPa WSW 7.7 km/h 36.2 km/h 59 % 0 mm
18:42 -6.8 °C -11 °C 34703.1 hPa WNW 7.7 km/h 36.2 km/h 62 % 0 mm
18:52 -6.9 °C -11.1 °C 34703.1 hPa WSW 12.9 km/h 25.9 km/h 62 % 0 mm
18:57 -7 °C -11.2 °C 34703.1 hPa West 12.9 km/h 28.5 km/h 62 % 0 mm
19:02 -6.9 °C -10.9 °C 34703.1 hPa West 10.3 km/h 28.5 km/h 63 % 0 mm
19:12 -6.9 °C -10.8 °C 34716.7 hPa WNW 10.3 km/h 20.8 km/h 64 % 0 mm
19:17 -7 °C -11 °C 34716.7 hPa West 18.2 km/h 20.8 km/h 63 % 0 mm
19:22 -7.2 °C -11.1 °C 34716.7 hPa West 7.7 km/h 23.3 km/h 64 % 0 mm
19:27 -7.3 °C -11 °C 34716.7 hPa SW 7.7 km/h 23.3 km/h 65 % 0 mm
19:32 -7.3 °C -11.2 °C 34716.7 hPa WSW 20.8 km/h 23.3 km/h 64 % 0 mm
19:37 -7.3 °C -11.2 °C 34716.7 hPa West 10.3 km/h 20.8 km/h 64 % 0 mm
19:42 -7.3 °C -11.2 °C 34716.7 hPa West 7.7 km/h 23.3 km/h 64 % 0 mm
19:52 -7.4 °C -11.2 °C 34726.8 hPa WNW 10.3 km/h 20.8 km/h 64 % 0 mm
19:57 -7.5 °C -11.2 °C 34726.8 hPa SW 12.9 km/h 20.8 km/h 65 % 0 mm
20:02 -7.6 °C -11 °C 34726.8 hPa WSW 15.6 km/h 20.8 km/h 67 % 0 mm
20:12 -7.4 °C -11 °C 34726.8 hPa West 10.3 km/h 15.6 km/h 66 % 0 mm
20:17 -7.3 °C -10.9 °C 34740.4 hPa West 5.1 km/h 15.6 km/h 66 % 0 mm
20:22 -7.3 °C -11 °C 34740.4 hPa WSW 2.6 km/h 15.6 km/h 65 % 0 mm
20:27 -7.4 °C -10.9 °C 34740.4 hPa West 7.7 km/h 15.6 km/h 67 % 0 mm
20:32 -7.6 °C -11 °C 34740.4 hPa WSW 2.6 km/h 12.9 km/h 67 % 0 mm
20:37 -7.7 °C -11 °C 34740.4 hPa WSW 5.1 km/h 12.9 km/h 68 % 0 mm
20:42 -7.7 °C -10.9 °C 34740.4 hPa Calm   12.9 km/h 69 % 0 mm
20:47 -7.9 °C -10.8 °C 34740.4 hPa WSW 2.6 km/h 10.3 km/h 71 % 0 mm
20:52 -7.9 °C -10.8 °C 34750.5 hPa WSW 2.6 km/h 7.7 km/h 72 % 0 mm
20:57 -8 °C -10.8 °C 34750.5 hPa WSW 2.6 km/h 10.3 km/h 72 % 0 mm
21:02 -8.1 °C -10.9 °C 34750.5 hPa West 2.6 km/h 10.3 km/h 72 % 0 mm
21:07 -8.2 °C -10.9 °C 34750.5 hPa West 5.1 km/h 10.3 km/h 73 % 0 mm
21:12 -8.4 °C -10.9 °C 34750.5 hPa WSW 2.6 km/h 5.1 km/h 75 % 0 mm
21:17 -8.5 °C -11 °C 34750.5 hPa Calm   5.1 km/h 75 % 0 mm
21:22 -8.7 °C -11 °C 34750.5 hPa WNW 5.1 km/h 5.1 km/h 76 % 0 mm
21:27 -8.8 °C -10.9 °C 34760.7 hPa Calm   5.1 km/h 78 % 0 mm
21:32 -9 °C -11 °C 34760.7 hPa Calm   5.1 km/h 79 % 0 mm
21:42 -9.3 °C -11.1 °C 34760.7 hPa Calm   2.6 km/h 81 % 0 mm
21:52 -9.7 °C -11.2 °C 34774.2 hPa West 2.6 km/h 2.6 km/h 84 % 0 mm
21:57 -9.9 °C -11.3 °C 34774.2 hPa Calm   2.6 km/h 85 % 0 mm
22:02 -9.9 °C -11.4 °C 34774.2 hPa Calm   2.6 km/h 84 % 0 mm
22:07 -9.9 °C -11.5 °C 34784.4 hPa Calm   2.6 km/h 83 % 0 mm
22:12 -9.9 °C -11.5 °C 34774.2 hPa Calm   2.6 km/h 83 % 0 mm
22:17 -9.9 °C -11.7 °C 34784.4 hPa Calm   5.1 km/h 81 % 0 mm
22:22 -10 °C -11.8 °C 34784.4 hPa Calm   5.1 km/h 81 % 0 mm
22:32 -10.3 °C -12.1 °C 34784.4 hPa West 2.6 km/h 5.1 km/h 81 % 0 mm
22:42 -10.3 °C -12.4 °C 34797.9 hPa Calm   7.7 km/h 78 % 0 mm
22:47 -10.5 °C -12.5 °C 34797.9 hPa Calm   5.1 km/h 79 % 0 mm
22:52 -10.6 °C -12.6 °C 34797.9 hPa Calm   2.6 km/h 79 % 0 mm
22:57 -10.6 °C -12.5 °C 34797.9 hPa Calm   2.6 km/h 80 % 0 mm
23:02 -10.8 °C -12.4 °C 34797.9 hPa Calm   2.6 km/h 82 % 0 mm
23:07 -10.9 °C -12.6 °C 34797.9 hPa Calm   2.6 km/h 82 % 0 mm
23:12 -10.9 °C -12.5 °C 34797.9 hPa Calm   2.6 km/h 83 % 0 mm
23:17 -11 °C -12.6 °C 34797.9 hPa Calm   2.6 km/h 83 % 0 mm
23:22 -11.1 °C -12.6 °C 34797.9 hPa Calm   2.6 km/h 83 % 0 mm
23:27 -11.2 °C -12.7 °C 34797.9 hPa Calm   2.6 km/h 83 % 0 mm
23:37 -11.3 °C -12.8 °C 34797.9 hPa Calm   2.6 km/h 84 % 0 mm
23:42 -11.4 °C -12.8 °C 34797.9 hPa Calm     84 % 0 mm
23:52 -11.5 °C -12.8 °C 34797.9 hPa Calm     85 % 0 mm
Meteo18
Compliments of Weather Underground - 4 mb

Script developed by  Jim McMurry - jmcmurry@mwt.net Adapted for the template by  Wim van der Kuil - Leuven-Template.eu

You find our weather info also at:

European Weather Network

Weather Underground

Equipment we use:

Weather-station
Davis Vue

Weather-program
Meteobridge

Weather-server
Raspberry PI 2 B+

Provider
1 and 1

Davis Vue

Meteobridge

Raspberry PI 2 B+

1 and 1